createdAt,value
2019-04-07T00:01:04.636Z,10.90
2019-04-07T00:03:40.053Z,10.80
2019-04-07T00:06:15.669Z,10.80
2019-04-07T00:08:56.476Z,10.70
2019-04-07T00:11:32.336Z,10.60
2019-04-07T00:14:07.520Z,10.60
2019-04-07T00:16:45.890Z,10.60
2019-04-07T00:19:21.124Z,10.60
2019-04-07T00:21:57.701Z,10.50
2019-04-07T00:24:33.184Z,10.50
2019-04-07T00:27:08.406Z,10.50
2019-04-07T00:29:44.152Z,10.40
2019-04-07T00:32:20.020Z,10.40
2019-04-07T00:34:55.286Z,10.30
2019-04-07T00:37:31.044Z,10.30
2019-04-07T00:40:07.019Z,10.30
2019-04-07T00:42:42.843Z,10.30
2019-04-07T00:45:18.544Z,10.20
2019-04-07T00:47:54.371Z,10.20
2019-04-07T00:50:30.707Z,10.10
2019-04-07T00:53:06.451Z,10.10
2019-04-07T00:55:41.754Z,10.10
2019-04-07T00:58:17.863Z,10.10
2019-04-07T01:00:53.689Z,10.10
2019-04-07T01:03:29.144Z,10.00
2019-04-07T01:06:17.515Z,10.10
2019-04-07T01:08:54.751Z,10.00
2019-04-07T01:11:29.955Z,10.00
2019-04-07T01:14:05.965Z,10.00
2019-04-07T01:16:41.775Z,10.00
2019-04-07T01:19:17.005Z,9.90
2019-04-07T01:21:52.176Z,9.90
2019-04-07T01:24:27.713Z,9.90
2019-04-07T01:27:02.898Z,9.90
2019-04-07T01:29:38.104Z,9.80
2019-04-07T01:32:13.969Z,9.80
2019-04-07T01:34:49.408Z,9.80
2019-04-07T01:37:25.221Z,9.70
2019-04-07T01:40:00.469Z,9.70
2019-04-07T01:42:44.606Z,9.60
2019-04-07T01:45:39.986Z,9.60
2019-04-07T01:48:38.212Z,9.60
2019-04-07T01:51:23.652Z,9.60
2019-04-07T01:54:24.052Z,9.60
2019-04-07T01:57:16.902Z,9.70
2019-04-07T02:00:17.192Z,9.70
2019-04-07T02:02:59.140Z,9.70
2019-04-07T02:06:05.982Z,9.70
2019-04-07T02:09:07.130Z,9.70
2019-04-07T02:12:07.185Z,9.70
2019-04-07T02:15:00.008Z,9.60
2019-04-07T02:17:43.897Z,9.70
2019-04-07T02:21:14.386Z,9.70
2019-04-07T02:24:14.475Z,9.70
2019-04-07T02:27:08.607Z,9.70
2019-04-07T02:30:03.720Z,9.70
2019-04-07T02:32:54.484Z,9.70
2019-04-07T02:35:38.412Z,9.70
2019-04-07T02:38:23.077Z,9.70
2019-04-07T02:41:15.954Z,9.70
2019-04-07T02:44:15.917Z,9.70
2019-04-07T02:47:10.030Z,9.80
2019-04-07T02:50:16.018Z,9.70
2019-04-07T02:53:11.072Z,9.70
2019-04-07T02:56:05.385Z,9.80
2019-04-07T02:59:01.374Z,9.80
2019-04-07T03:01:54.037Z,9.80
2019-04-07T03:04:48.480Z,9.80
2019-04-07T03:07:43.107Z,9.80
2019-04-07T03:10:52.404Z,9.80
2019-04-07T03:13:47.152Z,9.80
2019-04-07T03:16:40.588Z,9.80
2019-04-07T03:19:37.787Z,9.80
2019-04-07T03:22:25.780Z,9.80
2019-04-07T03:25:19.133Z,9.80
2019-04-07T03:28:19.775Z,9.80
2019-04-07T03:31:06.410Z,9.80
2019-04-07T03:34:03.025Z,9.80
2019-04-07T03:37:18.255Z,9.80
2019-04-07T03:39:57.521Z,9.80
2019-04-07T03:42:43.652Z,9.80
2019-04-07T03:45:25.172Z,9.70
2019-04-07T03:48:19.659Z,9.70
2019-04-07T03:51:20.319Z,9.70
2019-04-07T03:54:10.206Z,9.70
2019-04-07T03:57:02.012Z,9.70
2019-04-07T03:59:48.958Z,9.70
2019-04-07T04:02:43.023Z,9.70
2019-04-07T04:05:39.344Z,9.70
2019-04-07T04:08:28.746Z,9.70
2019-04-07T04:11:18.780Z,9.60
2019-04-07T04:14:11.144Z,9.60
2019-04-07T04:16:49.387Z,9.60
2019-04-07T04:19:27.024Z,9.60
2019-04-07T04:22:02.355Z,9.70
2019-04-07T04:24:38.131Z,9.70
2019-04-07T04:27:13.363Z,9.70
2019-04-07T04:29:51.783Z,9.70
2019-04-07T04:32:25.609Z,9.70
2019-04-07T04:35:01.048Z,9.70
2019-04-07T04:37:44.199Z,9.70
2019-04-07T04:40:14.062Z,9.70
2019-04-07T04:42:49.398Z,9.70
2019-04-07T04:45:24.691Z,9.80
2019-04-07T04:48:00.174Z,9.80
2019-04-07T04:50:35.647Z,9.90
2019-04-07T04:53:10.838Z,9.90
2019-04-07T04:55:47.092Z,9.90
2019-04-07T04:58:22.902Z,9.90
2019-04-07T05:00:58.881Z,9.90
2019-04-07T05:03:35.070Z,9.90
2019-04-07T05:06:11.016Z,9.90
2019-04-07T05:08:46.978Z,9.90
2019-04-07T05:11:22.201Z,9.90
2019-04-07T05:13:58.121Z,9.90
2019-04-07T05:16:33.550Z,9.90
2019-04-07T05:19:10.146Z,9.90
2019-04-07T05:21:45.784Z,9.90
2019-04-07T05:24:21.258Z,9.90
2019-04-07T05:26:57.261Z,9.90
2019-04-07T05:29:32.535Z,9.90
2019-04-07T05:32:07.996Z,9.80
2019-04-07T05:34:43.167Z,9.90
2019-04-07T05:37:18.838Z,9.90
2019-04-07T05:39:54.057Z,10.00
2019-04-07T05:42:30.065Z,10.00
2019-04-07T05:45:05.327Z,10.00
2019-04-07T05:47:43.597Z,10.10
2019-04-07T05:50:17.426Z,10.10
2019-04-07T05:52:53.046Z,10.10
2019-04-07T05:55:28.250Z,10.20
2019-04-07T05:58:06.470Z,10.30
2019-04-07T06:00:41.580Z,10.40
2019-04-07T06:03:17.594Z,10.50
2019-04-07T06:05:52.909Z,10.60
2019-04-07T06:08:35.540Z,10.60
2019-04-07T06:11:05.260Z,10.70
2019-04-07T06:13:43.867Z,10.80
2019-04-07T06:16:19.948Z,10.80
2019-04-07T06:18:54.246Z,10.90
2019-04-07T06:21:29.536Z,11.00
2019-04-07T06:24:04.811Z,11.10
2019-04-07T06:26:42.119Z,11.10
2019-04-07T06:29:17.042Z,11.20
2019-04-07T06:31:52.793Z,11.30
2019-04-07T06:34:28.143Z,11.40
2019-04-07T06:37:03.535Z,11.40
2019-04-07T06:39:39.109Z,11.50
2019-04-07T06:42:14.308Z,11.60
2019-04-07T06:44:51.667Z,11.80
2019-04-07T06:47:47.156Z,12.00
2019-04-07T06:50:32.142Z,12.10
2019-04-07T06:53:17.448Z,12.30
2019-04-07T06:56:11.461Z,12.40
2019-04-07T06:59:23.291Z,12.40
2019-04-07T07:02:16.304Z,12.30
2019-04-07T07:05:16.591Z,12.30
2019-04-07T07:08:13.673Z,12.30
2019-04-07T07:11:27.581Z,12.30
2019-04-07T07:14:30.595Z,12.40
2019-04-07T07:17:14.927Z,12.40
2019-04-07T07:20:01.401Z,12.50
2019-04-07T07:22:50.767Z,12.50
2019-04-07T07:25:28.589Z,12.60
2019-04-07T07:28:04.531Z,12.60
2019-04-07T07:30:40.405Z,12.70
2019-04-07T07:33:15.716Z,12.80
2019-04-07T07:35:50.942Z,12.90
2019-04-07T07:38:27.734Z,12.90
2019-04-07T07:41:04.495Z,13.00
2019-04-07T07:43:40.288Z,13.10
2019-04-07T07:46:18.109Z,13.10
2019-04-07T07:48:57.107Z,13.30
2019-04-07T07:51:30.332Z,13.40
2019-04-07T07:54:14.967Z,13.50
2019-04-07T07:56:51.223Z,13.50
2019-04-07T07:59:30.696Z,13.50
2019-04-07T08:02:04.307Z,13.70
2019-04-07T08:04:40.474Z,13.70
2019-04-07T08:07:16.662Z,13.80
2019-04-07T08:09:54.399Z,13.90
2019-04-07T08:12:32.403Z,14.00
2019-04-07T08:15:07.104Z,14.10
2019-04-07T08:17:46.334Z,14.10
2019-04-07T08:20:22.030Z,14.20
2019-04-07T08:22:57.295Z,14.20
2019-04-07T08:25:33.570Z,14.30
2019-04-07T08:28:09.310Z,14.40
2019-04-07T08:30:47.651Z,14.50
2019-04-07T08:33:23.695Z,14.60
2019-04-07T08:35:59.003Z,14.70
2019-04-07T08:38:38.262Z,14.70
2019-04-07T08:41:15.547Z,14.70
2019-04-07T08:43:53.240Z,14.80
2019-04-07T08:46:32.281Z,15.00
2019-04-07T08:49:07.653Z,15.10
2019-04-07T08:51:43.770Z,15.20
2019-04-07T08:54:19.090Z,15.30
2019-04-07T08:56:56.893Z,15.40
2019-04-07T08:59:32.282Z,15.50
2019-04-07T09:02:07.667Z,15.60
2019-04-07T09:04:47.342Z,15.60
2019-04-07T09:07:22.575Z,15.70
2019-04-07T09:09:56.657Z,15.80
2019-04-07T09:12:32.236Z,15.90
2019-04-07T09:15:11.766Z,15.90
2019-04-07T09:18:08.774Z,16.00
2019-04-07T09:20:51.865Z,16.10
2019-04-07T09:23:44.754Z,16.20
2019-04-07T09:26:42.111Z,16.30
2019-04-07T09:29:28.125Z,16.40
2019-04-07T09:32:30.812Z,16.50
2019-04-07T09:35:26.491Z,16.60
2019-04-07T09:38:21.718Z,16.70
2019-04-07T09:41:21.654Z,16.80
2019-04-07T09:44:05.857Z,16.80
2019-04-07T09:47:00.833Z,16.90
2019-04-07T09:50:03.468Z,17.00
2019-04-07T09:53:00.735Z,17.00
2019-04-07T09:56:13.445Z,17.10
2019-04-07T09:59:19.162Z,17.20
2019-04-07T10:02:05.922Z,17.40
2019-04-07T10:05:04.416Z,17.40
2019-04-07T10:08:04.460Z,17.50
2019-04-07T10:10:57.256Z,17.50
2019-04-07T10:13:53.055Z,17.60
2019-04-07T10:16:53.036Z,17.70
2019-04-07T10:19:48.954Z,17.70
2019-04-07T10:22:49.129Z,17.70
2019-04-07T10:25:30.515Z,17.80
2019-04-07T10:28:16.683Z,17.90
2019-04-07T10:31:02.371Z,18.00
2019-04-07T10:33:59.568Z,18.00
2019-04-07T10:36:42.880Z,18.10
2019-04-07T10:39:37.112Z,18.10
2019-04-07T10:42:34.649Z,18.20
2019-04-07T10:45:28.429Z,18.20
2019-04-07T10:48:34.784Z,18.30
2019-04-07T10:51:27.554Z,18.30
2019-04-07T10:54:22.406Z,18.40
2019-04-07T10:57:25.731Z,18.40
2019-04-07T11:00:28.722Z,18.50
2019-04-07T11:03:23.021Z,18.50
2019-04-07T11:06:19.196Z,18.50
2019-04-07T11:09:23.562Z,18.60
2019-04-07T11:12:11.933Z,18.60
2019-04-07T11:15:04.691Z,18.60
2019-04-07T11:17:49.382Z,18.80
2019-04-07T11:20:47.206Z,18.70
2019-04-07T11:23:50.951Z,18.80
2019-04-07T11:26:48.588Z,19.00
2019-04-07T11:29:37.659Z,19.10
2019-04-07T11:32:22.893Z,19.10
2019-04-07T11:35:15.773Z,19.10
2019-04-07T11:38:10.363Z,19.10
2019-04-07T11:41:17.003Z,19.00
2019-04-07T11:44:07.329Z,19.10
2019-04-07T11:47:14.154Z,19.20
2019-04-07T11:50:11.120Z,19.30
2019-04-07T11:53:03.929Z,19.30
2019-04-07T11:56:05.951Z,19.20
2019-04-07T11:59:15.112Z,19.30
2019-04-07T12:02:09.466Z,19.20
2019-04-07T12:05:09.856Z,19.20
2019-04-07T12:08:02.558Z,19.30
2019-04-07T12:11:01.723Z,19.40
2019-04-07T12:13:57.647Z,19.40
2019-04-07T12:16:44.811Z,19.20
2019-04-07T12:19:30.842Z,19.30
2019-04-07T12:22:19.376Z,19.40
2019-04-07T12:25:23.326Z,19.40
2019-04-07T12:28:09.778Z,19.30
2019-04-07T12:30:52.825Z,19.50
2019-04-07T12:33:37.460Z,19.60
2019-04-07T12:36:30.727Z,19.50
2019-04-07T12:39:19.159Z,19.50
2019-04-07T12:42:10.225Z,19.40
2019-04-07T12:45:00.537Z,19.50
2019-04-07T12:47:44.012Z,19.60
2019-04-07T12:50:41.111Z,19.60
2019-04-07T12:53:36.233Z,19.70
2019-04-07T12:56:33.344Z,19.70
2019-04-07T12:59:16.908Z,19.60
2019-04-07T13:02:00.763Z,19.50
2019-04-07T13:05:02.895Z,19.50
2019-04-07T13:08:00.473Z,19.60
2019-04-07T13:11:24.676Z,19.70
2019-04-07T13:14:10.021Z,19.70
2019-04-07T13:17:10.516Z,19.70
2019-04-07T13:19:58.261Z,19.80
2019-04-07T13:22:49.708Z,19.80
2019-04-07T13:25:42.877Z,20.00
2019-04-07T13:28:51.870Z,20.00
2019-04-07T13:31:38.480Z,20.00
2019-04-07T13:34:31.138Z,19.90
2019-04-07T13:37:34.804Z,20.00
2019-04-07T13:40:15.840Z,20.10
2019-04-07T13:43:13.416Z,20.10
2019-04-07T13:46:22.214Z,20.20
2019-04-07T13:49:18.188Z,20.20
2019-04-07T13:52:19.318Z,20.10
2019-04-07T13:54:59.079Z,20.10
2019-04-07T13:57:44.076Z,20.20
2019-04-07T14:00:37.139Z,20.20
2019-04-07T14:03:25.794Z,20.30
2019-04-07T14:06:15.297Z,20.30
2019-04-07T14:09:12.323Z,20.30
2019-04-07T14:12:05.495Z,20.40
2019-04-07T14:14:52.679Z,20.40
2019-04-07T14:17:51.248Z,20.30
2019-04-07T14:20:48.611Z,20.30
2019-04-07T14:23:54.586Z,20.30
2019-04-07T14:26:54.908Z,20.30
2019-04-07T14:29:48.153Z,20.20
2019-04-07T14:32:52.009Z,20.40
2019-04-07T14:36:01.290Z,20.40
2019-04-07T14:38:44.033Z,20.30
2019-04-07T14:41:29.928Z,20.30
2019-04-07T14:44:23.611Z,20.30
2019-04-07T14:47:27.288Z,20.30
2019-04-07T14:50:25.240Z,20.30
2019-04-07T14:53:25.440Z,20.30
2019-04-07T14:56:18.674Z,20.30
2019-04-07T14:59:16.163Z,20.20
2019-04-07T15:02:00.484Z,20.30
2019-04-07T15:04:49.456Z,20.40
2019-04-07T15:07:42.547Z,20.40
2019-04-07T15:10:24.566Z,20.40
2019-04-07T15:13:05.320Z,20.40
2019-04-07T15:15:41.784Z,20.30
2019-04-07T15:18:17.543Z,20.30
2019-04-07T15:20:52.811Z,20.30
2019-04-07T15:23:30.953Z,20.20
2019-04-07T15:26:05.334Z,20.20
2019-04-07T15:28:41.548Z,20.20
2019-04-07T15:31:19.473Z,20.20
2019-04-07T15:33:55.302Z,20.20
2019-04-07T15:36:31.607Z,20.20
2019-04-07T15:39:09.850Z,20.20
2019-04-07T15:41:45.548Z,20.10
2019-04-07T15:44:20.806Z,20.10
2019-04-07T15:46:56.581Z,20.00
2019-04-07T15:49:32.142Z,20.00
2019-04-07T15:52:08.975Z,19.90
2019-04-07T15:54:44.222Z,19.90
2019-04-07T15:57:21.675Z,19.80
2019-04-07T16:00:00.086Z,19.80
2019-04-07T16:02:33.533Z,19.70
2019-04-07T16:05:09.401Z,19.70
2019-04-07T16:07:46.578Z,19.60
2019-04-07T16:10:23.546Z,19.50
2019-04-07T16:12:59.555Z,19.50
2019-04-07T16:15:35.065Z,19.40
2019-04-07T16:18:10.611Z,19.30
2019-04-07T16:20:45.805Z,19.30
2019-04-07T16:23:22.189Z,19.20
2019-04-07T16:25:58.406Z,19.20
2019-04-07T16:28:35.045Z,19.10
2019-04-07T16:31:10.293Z,19.00
2019-04-07T16:33:46.494Z,19.00
2019-04-07T16:36:24.492Z,19.00
2019-04-07T16:39:00.458Z,18.90
2019-04-07T16:41:36.010Z,18.80
2019-04-07T16:44:11.825Z,18.70
2019-04-07T16:47:01.620Z,18.70
2019-04-07T16:49:34.880Z,18.60
2019-04-07T16:52:12.332Z,18.60
2019-04-07T16:54:47.556Z,18.50
2019-04-07T16:57:27.054Z,18.40
2019-04-07T17:00:02.433Z,18.40
2019-04-07T17:02:38.442Z,18.40
2019-04-07T17:05:14.915Z,18.40
2019-04-07T17:07:50.850Z,18.30
2019-04-07T17:10:32.420Z,18.20
2019-04-07T17:13:19.865Z,18.10
2019-04-07T17:15:51.967Z,18.00
2019-04-07T17:18:40.919Z,18.00
2019-04-07T17:21:16.581Z,17.90
2019-04-07T17:23:55.443Z,17.90
2019-04-07T17:26:29.574Z,17.80
2019-04-07T17:29:05.006Z,17.70
2019-04-07T17:31:41.178Z,17.60
2019-04-07T17:34:17.317Z,17.50
2019-04-07T17:36:55.968Z,17.40
2019-04-07T17:39:41.943Z,17.40
2019-04-07T17:42:19.794Z,17.40
2019-04-07T17:45:14.016Z,17.30
2019-04-07T17:48:17.357Z,17.20
2019-04-07T17:51:23.913Z,17.10
2019-04-07T17:54:17.073Z,17.00
2019-04-07T17:57:10.261Z,16.90
2019-04-07T18:00:07.811Z,16.80
2019-04-07T18:02:54.615Z,16.70
2019-04-07T18:05:38.767Z,16.70
2019-04-07T18:08:46.282Z,16.60
2019-04-07T18:11:54.525Z,16.50
2019-04-07T18:14:56.983Z,16.40
2019-04-07T18:17:49.756Z,16.30
2019-04-07T18:20:56.075Z,16.20
2019-04-07T18:23:55.569Z,16.10
2019-04-07T18:26:45.117Z,16.00
2019-04-07T18:29:38.149Z,15.90
2019-04-07T18:32:31.903Z,15.80
2019-04-07T18:35:30.782Z,15.70
2019-04-07T18:38:36.350Z,15.60
2019-04-07T18:41:34.016Z,15.50
2019-04-07T18:44:18.373Z,15.50
2019-04-07T18:47:10.209Z,15.40
2019-04-07T18:50:07.542Z,15.30
2019-04-07T18:53:00.248Z,15.30
2019-04-07T18:55:53.734Z,15.20
2019-04-07T18:58:47.069Z,15.20
2019-04-07T19:01:40.099Z,15.20
2019-04-07T19:04:28.028Z,15.10
2019-04-07T19:07:22.489Z,15.00
2019-04-07T19:10:37.611Z,15.00
2019-04-07T19:13:26.729Z,15.00
2019-04-07T19:16:21.723Z,14.90
2019-04-07T19:19:19.225Z,14.80
2019-04-07T19:22:15.814Z,14.80
2019-04-07T19:25:14.304Z,14.80
2019-04-07T19:28:06.014Z,14.70
2019-04-07T19:30:52.463Z,14.60
2019-04-07T19:33:35.856Z,14.60
2019-04-07T19:36:44.313Z,14.60
2019-04-07T19:39:41.050Z,14.60
2019-04-07T19:42:43.858Z,14.60
2019-04-07T19:45:43.628Z,14.60
2019-04-07T19:48:28.821Z,14.50
2019-04-07T19:51:28.308Z,14.20
2019-04-07T19:54:27.256Z,14.10
2019-04-07T19:57:13.343Z,14.10
2019-04-07T19:59:55.535Z,14.20
2019-04-07T20:02:55.859Z,14.10
2019-04-07T20:05:59.027Z,14.10
2019-04-07T20:08:49.398Z,14.00
2019-04-07T20:11:42.145Z,14.00
2019-04-07T20:14:52.689Z,14.00
2019-04-07T20:17:51.390Z,14.10
2019-04-07T20:20:31.107Z,14.20
2019-04-07T20:23:27.777Z,14.20
2019-04-07T20:26:07.984Z,14.20
2019-04-07T20:29:09.677Z,14.30
2019-04-07T20:32:05.780Z,14.30
2019-04-07T20:35:03.296Z,14.40
2019-04-07T20:37:59.760Z,14.40
2019-04-07T20:40:45.783Z,14.40
2019-04-07T20:43:51.262Z,14.30
2019-04-07T20:46:58.253Z,14.30
2019-04-07T20:50:01.544Z,14.30
2019-04-07T20:53:14.307Z,14.30
2019-04-07T20:55:58.164Z,14.20
2019-04-07T20:59:08.018Z,14.10
2019-04-07T21:02:20.939Z,13.90
2019-04-07T21:05:06.757Z,13.90
2019-04-07T21:08:10.364Z,13.70
2019-04-07T21:11:04.700Z,13.60
2019-04-07T21:14:16.349Z,13.50
2019-04-07T21:17:17.492Z,13.30
2019-04-07T21:20:11.794Z,13.20
2019-04-07T21:23:14.055Z,13.20
2019-04-07T21:26:08.293Z,13.10
2019-04-07T21:28:58.879Z,13.00
2019-04-07T21:31:54.235Z,13.00
2019-04-07T21:34:47.272Z,12.80
2019-04-07T21:37:40.862Z,12.80
2019-04-07T21:40:37.884Z,12.70
2019-04-07T21:43:26.665Z,12.70
2019-04-07T21:46:29.127Z,12.60
2019-04-07T21:49:32.827Z,12.60
2019-04-07T21:52:32.485Z,12.50
2019-04-07T21:55:26.011Z,12.50
2019-04-07T21:58:21.850Z,12.50
2019-04-07T22:01:18.634Z,12.40
2019-04-07T22:04:25.327Z,12.30
2019-04-07T22:07:19.531Z,12.30
2019-04-07T22:09:58.849Z,12.20
2019-04-07T22:12:34.525Z,12.20
2019-04-07T22:15:13.469Z,12.10
2019-04-07T22:17:47.841Z,12.20
2019-04-07T22:20:23.158Z,12.10
2019-04-07T22:23:01.396Z,12.10
2019-04-07T22:25:44.149Z,12.10
2019-04-07T22:28:19.485Z,12.00
2019-04-07T22:30:55.959Z,12.00
2019-04-07T22:33:32.480Z,11.90
2019-04-07T22:36:11.254Z,11.80
2019-04-07T22:38:45.134Z,11.80
2019-04-07T22:41:20.379Z,11.80
2019-04-07T22:43:55.632Z,11.80
2019-04-07T22:46:31.088Z,11.80
2019-04-07T22:49:07.100Z,11.70
2019-04-07T22:51:44.624Z,11.80
2019-04-07T22:54:19.331Z,11.70
2019-04-07T22:56:54.671Z,11.80
2019-04-07T22:59:30.204Z,11.70
2019-04-07T23:02:05.529Z,11.70
2019-04-07T23:04:40.760Z,11.70
2019-04-07T23:07:15.995Z,11.70
2019-04-07T23:09:51.774Z,11.60
2019-04-07T23:12:27.112Z,11.60
2019-04-07T23:15:02.293Z,11.60
2019-04-07T23:17:37.705Z,11.60
2019-04-07T23:20:13.123Z,11.70
2019-04-07T23:22:48.439Z,11.60
2019-04-07T23:25:24.713Z,11.60
2019-04-07T23:28:00.598Z,11.60
2019-04-07T23:30:35.809Z,11.50
2019-04-07T23:33:11.049Z,11.60
2019-04-07T23:35:46.869Z,11.50
2019-04-07T23:38:22.040Z,11.40
2019-04-07T23:40:57.738Z,11.40
2019-04-07T23:43:33.429Z,11.40
2019-04-07T23:46:19.872Z,11.40
2019-04-07T23:48:45.706Z,11.30
2019-04-07T23:51:20.920Z,11.30
2019-04-07T23:54:12.488Z,11.30
2019-04-07T23:56:47.824Z,11.30
2019-04-07T23:59:23.140Z,11.30
